sensor_id;sensor_type;location;lat;lon;timestamp;temperature;humidity
69776;DHT22;57049;51.450;-2.516;2024-02-15T00:02:22;12.35;99.99
69776;DHT22;57049;51.450;-2.516;2024-02-15T00:04:48;12.31;99.99
69776;DHT22;57049;51.450;-2.516;2024-02-15T00:07:13;12.37;99.99
69776;DHT22;57049;51.450;-2.516;2024-02-15T00:09:39;12.31;99.99
69776;DHT22;57049;51.450;-2.516;2024-02-15T00:12:05;12.31;99.99
69776;DHT22;57049;51.450;-2.516;2024-02-15T00:14:31;12.29;99.99
69776;DHT22;57049;51.450;-2.516;2024-02-15T00:16:57;12.27;99.99
69776;DHT22;57049;51.450;-2.516;2024-02-15T00:19:23;12.27;99.99
69776;DHT22;57049;51.450;-2.516;2024-02-15T00:21:49;12.25;99.99
69776;DHT22;57049;51.450;-2.516;2024-02-15T00:24:14;12.28;99.99
69776;DHT22;57049;51.450;-2.516;2024-02-15T00:26:40;12.31;99.99
69776;DHT22;57049;51.450;-2.516;2024-02-15T00:29:08;12.27;99.99
69776;DHT22;57049;51.450;-2.516;2024-02-15T00:31:34;12.28;99.99
69776;DHT22;57049;51.450;-2.516;2024-02-15T00:34:01;12.28;99.99
69776;DHT22;57049;51.450;-2.516;2024-02-15T00:36:28;12.32;99.99
69776;DHT22;57049;51.450;-2.516;2024-02-15T00:38:54;12.29;99.99
69776;DHT22;57049;51.450;-2.516;2024-02-15T00:41:20;12.35;99.99
69776;DHT22;57049;51.450;-2.516;2024-02-15T00:43:47;12.34;99.99
69776;DHT22;57049;51.450;-2.516;2024-02-15T00:46:12;12.31;99.99
69776;DHT22;57049;51.450;-2.516;2024-02-15T00:48:38;12.29;99.99
69776;DHT22;57049;51.450;-2.516;2024-02-15T00:51:04;12.29;99.99
69776;DHT22;57049;51.450;-2.516;2024-02-15T00:53:29;12.29;99.99
69776;DHT22;57049;51.450;-2.516;2024-02-15T00:55:55;12.31;99.99
69776;DHT22;57049;51.450;-2.516;2024-02-15T00:58:21;12.28;99.99
69776;DHT22;57049;51.450;-2.516;2024-02-15T01:00:47;12.35;99.99
69776;DHT22;57049;51.450;-2.516;2024-02-15T01:03:12;12.32;99.99
69776;DHT22;57049;51.450;-2.516;2024-02-15T01:05:38;12.28;99.99
69776;DHT22;57049;51.450;-2.516;2024-02-15T01:08:03;12.32;99.99
69776;DHT22;57049;51.450;-2.516;2024-02-15T01:10:29;12.28;99.99
69776;DHT22;57049;51.450;-2.516;2024-02-15T01:12:54;12.27;99.99
69776;DHT22;57049;51.450;-2.516;2024-02-15T01:15:20;12.29;99.99
69776;DHT22;57049;51.450;-2.516;2024-02-15T01:17:46;12.35;99.99
69776;DHT22;57049;51.450;-2.516;2024-02-15T01:20:12;12.34;99.99
69776;DHT22;57049;51.450;-2.516;2024-02-15T01:22:38;12.32;99.99
69776;DHT22;57049;51.450;-2.516;2024-02-15T01:25:03;12.34;99.99
69776;DHT22;57049;51.450;-2.516;2024-02-15T01:27:29;12.35;99.99
69776;DHT22;57049;51.450;-2.516;2024-02-15T01:29:58;12.34;99.99
69776;DHT22;57049;51.450;-2.516;2024-02-15T01:32:26;12.37;99.99
69776;DHT22;57049;51.450;-2.516;2024-02-15T01:34:52;12.39;99.99
69776;DHT22;57049;51.450;-2.516;2024-02-15T01:37:20;12.44;99.99
69776;DHT22;57049;51.450;-2.516;2024-02-15T01:39:46;12.39;99.99
69776;DHT22;57049;51.450;-2.516;2024-02-15T01:42:12;12.39;99.99
69776;DHT22;57049;51.450;-2.516;2024-02-15T01:44:42;12.35;99.99
69776;DHT22;57049;51.450;-2.516;2024-02-15T01:47:10;12.31;99.99
69776;DHT22;57049;51.450;-2.516;2024-02-15T01:49:36;12.28;99.99
69776;DHT22;57049;51.450;-2.516;2024-02-15T01:52:05;12.27;99.99
69776;DHT22;57049;51.450;-2.516;2024-02-15T01:54:34;12.35;99.99
69776;DHT22;57049;51.450;-2.516;2024-02-15T01:57:01;12.35;99.99
69776;DHT22;57049;51.450;-2.516;2024-02-15T01:59:28;12.35;99.99
69776;DHT22;57049;51.450;-2.516;2024-02-15T02:01:53;12.38;99.99
69776;DHT22;57049;51.450;-2.516;2024-02-15T02:04:19;12.45;99.99
69776;DHT22;57049;51.450;-2.516;2024-02-15T02:06:44;12.38;99.99
69776;DHT22;57049;51.450;-2.516;2024-02-15T02:09:11;12.38;99.99
69776;DHT22;57049;51.450;-2.516;2024-02-15T02:11:38;12.34;99.99
69776;DHT22;57049;51.450;-2.516;2024-02-15T02:14:04;12.32;99.99
69776;DHT22;57049;51.450;-2.516;2024-02-15T02:16:31;12.28;99.99
69776;DHT22;57049;51.450;-2.516;2024-02-15T02:18:58;12.27;99.99
69776;DHT22;57049;51.450;-2.516;2024-02-15T02:21:25;12.27;99.99
69776;DHT22;57049;51.450;-2.516;2024-02-15T02:23:58;12.32;99.99
69776;DHT22;57049;51.450;-2.516;2024-02-15T02:26:24;12.42;99.99
69776;DHT22;57049;51.450;-2.516;2024-02-15T02:28:50;12.44;99.99
69776;DHT22;57049;51.450;-2.516;2024-02-15T02:31:20;12.45;99.99
69776;DHT22;57049;51.450;-2.516;2024-02-15T02:33:52;12.41;99.99
69776;DHT22;57049;51.450;-2.516;2024-02-15T02:36:18;12.45;99.99
69776;DHT22;57049;51.450;-2.516;2024-02-15T02:38:45;12.49;99.99
69776;DHT22;57049;51.450;-2.516;2024-02-15T02:41:13;12.50;99.99
69776;DHT22;57049;51.450;-2.516;2024-02-15T02:43:40;12.48;99.99
69776;DHT22;57049;51.450;-2.516;2024-02-15T02:46:05;12.50;99.99
69776;DHT22;57049;51.450;-2.516;2024-02-15T02:48:31;12.44;99.99
69776;DHT22;57049;51.450;-2.516;2024-02-15T02:50:57;12.48;99.99
69776;DHT22;57049;51.450;-2.516;2024-02-15T02:53:23;12.48;99.99
69776;DHT22;57049;51.450;-2.516;2024-02-15T02:55:49;12.45;99.99
69776;DHT22;57049;51.450;-2.516;2024-02-15T02:58:15;12.44;99.99
69776;DHT22;57049;51.450;-2.516;2024-02-15T03:00:40;12.46;99.99
69776;DHT22;57049;51.450;-2.516;2024-02-15T03:03:09;12.49;99.99
69776;DHT22;57049;51.450;-2.516;2024-02-15T03:05:38;12.46;99.99
69776;DHT22;57049;51.450;-2.516;2024-02-15T03:08:08;12.48;99.99
69776;DHT22;57049;51.450;-2.516;2024-02-15T03:10:34;12.50;99.99
69776;DHT22;57049;51.450;-2.516;2024-02-15T03:12:59;12.50;99.99
69776;DHT22;57049;51.450;-2.516;2024-02-15T03:15:25;12.46;99.99
69776;DHT22;57049;51.450;-2.516;2024-02-15T03:17:50;12.48;99.99
69776;DHT22;57049;51.450;-2.516;2024-02-15T03:20:17;12.48;99.99
69776;DHT22;57049;51.450;-2.516;2024-02-15T03:22:55;12.49;99.99
69776;DHT22;57049;51.450;-2.516;2024-02-15T03:25:21;12.50;99.99
69776;DHT22;57049;51.450;-2.516;2024-02-15T03:27:51;12.53;99.99
69776;DHT22;57049;51.450;-2.516;2024-02-15T03:30:20;12.50;99.99
69776;DHT22;57049;51.450;-2.516;2024-02-15T03:32:47;12.52;99.99
69776;DHT22;57049;51.450;-2.516;2024-02-15T03:35:20;12.49;99.99
69776;DHT22;57049;51.450;-2.516;2024-02-15T03:37:53;12.49;99.99
69776;DHT22;57049;51.450;-2.516;2024-02-15T03:40:19;12.48;99.99
69776;DHT22;57049;51.450;-2.516;2024-02-15T03:42:45;12.49;99.99
69776;DHT22;57049;51.450;-2.516;2024-02-15T03:45:15;12.53;99.99
69776;DHT22;57049;51.450;-2.516;2024-02-15T03:47:41;12.60;99.99
69776;DHT22;57049;51.450;-2.516;2024-02-15T03:50:08;12.65;99.99
69776;DHT22;57049;51.450;-2.516;2024-02-15T03:52:35;12.66;99.99
69776;DHT22;57049;51.450;-2.516;2024-02-15T03:55:01;12.68;99.99
69776;DHT22;57049;51.450;-2.516;2024-02-15T03:57:27;12.66;99.99
69776;DHT22;57049;51.450;-2.516;2024-02-15T03:59:53;12.78;99.99
69776;DHT22;57049;51.450;-2.516;2024-02-15T04:02:23;12.76;99.99
69776;DHT22;57049;51.450;-2.516;2024-02-15T04:04:53;12.76;99.99
69776;DHT22;57049;51.450;-2.516;2024-02-15T04:07:23;12.76;99.99
69776;DHT22;57049;51.450;-2.516;2024-02-15T04:09:52;12.78;99.99
69776;DHT22;57049;51.450;-2.516;2024-02-15T04:12:18;12.79;99.99
69776;DHT22;57049;51.450;-2.516;2024-02-15T04:14:44;12.83;99.99
69776;DHT22;57049;51.450;-2.516;2024-02-15T04:17:13;12.82;99.99
69776;DHT22;57049;51.450;-2.516;2024-02-15T04:19:39;12.83;99.99
69776;DHT22;57049;51.450;-2.516;2024-02-15T04:22:05;12.79;99.99
69776;DHT22;57049;51.450;-2.516;2024-02-15T04:24:33;12.83;99.99
69776;DHT22;57049;51.450;-2.516;2024-02-15T04:26:58;12.85;99.99
69776;DHT22;57049;51.450;-2.516;2024-02-15T04:29:27;12.86;99.99
69776;DHT22;57049;51.450;-2.516;2024-02-15T04:31:53;12.90;99.99
69776;DHT22;57049;51.450;-2.516;2024-02-15T04:34:19;12.93;99.99
69776;DHT22;57049;51.450;-2.516;2024-02-15T04:36:46;12.93;99.99
69776;DHT22;57049;51.450;-2.516;2024-02-15T04:39:15;12.90;99.99
69776;DHT22;57049;51.450;-2.516;2024-02-15T04:41:52;12.95;99.99
69776;DHT22;57049;51.450;-2.516;2024-02-15T04:44:17;13.02;99.99
69776;DHT22;57049;51.450;-2.516;2024-02-15T04:46:46;13.07;99.99
69776;DHT22;57049;51.450;-2.516;2024-02-15T04:49:12;13.04;99.99
69776;DHT22;57049;51.450;-2.516;2024-02-15T04:51:38;13.03;99.99
69776;DHT22;57049;51.450;-2.516;2024-02-15T04:54:06;13.03;99.99
69776;DHT22;57049;51.450;-2.516;2024-02-15T04:56:33;13.06;99.99
69776;DHT22;57049;51.450;-2.516;2024-02-15T04:58:58;13.00;99.99
69776;DHT22;57049;51.450;-2.516;2024-02-15T05:01:24;13.03;99.99
69776;DHT22;57049;51.450;-2.516;2024-02-15T05:03:49;13.04;99.99
69776;DHT22;57049;51.450;-2.516;2024-02-15T05:06:15;13.06;99.99
69776;DHT22;57049;51.450;-2.516;2024-02-15T05:08:43;13.04;99.99
69776;DHT22;57049;51.450;-2.516;2024-02-15T05:11:10;13.03;99.99
69776;DHT22;57049;51.450;-2.516;2024-02-15T05:13:45;13.06;99.99
69776;DHT22;57049;51.450;-2.516;2024-02-15T05:16:11;13.10;99.99
69776;DHT22;57049;51.450;-2.516;2024-02-15T05:18:37;13.04;99.99
69776;DHT22;57049;51.450;-2.516;2024-02-15T05:21:05;13.04;99.99
69776;DHT22;57049;51.450;-2.516;2024-02-15T05:23:37;13.10;99.99
69776;DHT22;57049;51.450;-2.516;2024-02-15T05:26:06;13.04;99.99
69776;DHT22;57049;51.450;-2.516;2024-02-15T05:28:31;13.09;99.99
69776;DHT22;57049;51.450;-2.516;2024-02-15T05:31:20;13.04;99.99
69776;DHT22;57049;51.450;-2.516;2024-02-15T05:33:46;13.06;99.99
69776;DHT22;57049;51.450;-2.516;2024-02-15T05:36:13;13.11;99.99
69776;DHT22;57049;51.450;-2.516;2024-02-15T05:38:39;13.10;99.99
69776;DHT22;57049;51.450;-2.516;2024-02-15T05:41:05;13.13;99.99
69776;DHT22;57049;51.450;-2.516;2024-02-15T05:43:35;13.14;99.99
69776;DHT22;57049;51.450;-2.516;2024-02-15T05:46:02;13.17;99.99
69776;DHT22;57049;51.450;-2.516;2024-02-15T05:48:28;13.20;99.99
69776;DHT22;57049;51.450;-2.516;2024-02-15T05:50:56;13.26;99.99
69776;DHT22;57049;51.450;-2.516;2024-02-15T05:53:23;13.27;99.99
69776;DHT22;57049;51.450;-2.516;2024-02-15T05:55:50;13.20;99.99
69776;DHT22;57049;51.450;-2.516;2024-02-15T05:58:15;13.24;99.99
69776;DHT22;57049;51.450;-2.516;2024-02-15T06:00:42;13.19;99.99
69776;DHT22;57049;51.450;-2.516;2024-02-15T06:03:12;13.19;99.99
69776;DHT22;57049;51.450;-2.516;2024-02-15T06:05:38;13.13;99.99
69776;DHT22;57049;51.450;-2.516;2024-02-15T06:08:05;13.13;99.99
69776;DHT22;57049;51.450;-2.516;2024-02-15T06:10:30;13.11;99.99
69776;DHT22;57049;51.450;-2.516;2024-02-15T06:12:57;13.16;99.99
69776;DHT22;57049;51.450;-2.516;2024-02-15T06:15:24;13.13;99.99
69776;DHT22;57049;51.450;-2.516;2024-02-15T06:17:50;13.14;99.99
69776;DHT22;57049;51.450;-2.516;2024-02-15T06:20:16;13.10;99.99
69776;DHT22;57049;51.450;-2.516;2024-02-15T06:22:45;13.09;99.99
69776;DHT22;57049;51.450;-2.516;2024-02-15T06:25:11;13.04;99.99
69776;DHT22;57049;51.450;-2.516;2024-02-15T06:27:38;13.06;99.99
69776;DHT22;57049;51.450;-2.516;2024-02-15T06:30:10;13.13;99.99
69776;DHT22;57049;51.450;-2.516;2024-02-15T06:32:55;13.13;99.99
69776;DHT22;57049;51.450;-2.516;2024-02-15T06:35:39;13.13;99.99
69776;DHT22;57049;51.450;-2.516;2024-02-15T06:38:23;13.07;99.99
69776;DHT22;57049;51.450;-2.516;2024-02-15T06:41:08;13.07;99.99
69776;DHT22;57049;51.450;-2.516;2024-02-15T06:43:35;13.07;99.99
69776;DHT22;57049;51.450;-2.516;2024-02-15T06:46:01;13.02;99.99
69776;DHT22;57049;51.450;-2.516;2024-02-15T06:48:28;13.02;99.99
69776;DHT22;57049;51.450;-2.516;2024-02-15T06:50:53;12.97;99.99
69776;DHT22;57049;51.450;-2.516;2024-02-15T06:53:19;12.96;99.99
69776;DHT22;57049;51.450;-2.516;2024-02-15T06:55:46;12.90;99.99
69776;DHT22;57049;51.450;-2.516;2024-02-15T06:58:18;12.86;99.99
69776;DHT22;57049;51.450;-2.516;2024-02-15T07:00:45;12.83;99.99
69776;DHT22;57049;51.450;-2.516;2024-02-15T07:03:11;12.83;99.99
69776;DHT22;57049;51.450;-2.516;2024-02-15T07:05:40;12.88;99.99
69776;DHT22;57049;51.450;-2.516;2024-02-15T07:08:09;12.86;99.99
69776;DHT22;57049;51.450;-2.516;2024-02-15T07:10:40;12.85;99.99
69776;DHT22;57049;51.450;-2.516;2024-02-15T07:13:05;12.83;99.99
69776;DHT22;57049;51.450;-2.516;2024-02-15T07:15:33;12.86;99.99
69776;DHT22;57049;51.450;-2.516;2024-02-15T07:18:05;12.83;99.99
69776;DHT22;57049;51.450;-2.516;2024-02-15T07:20:32;12.78;99.99
69776;DHT22;57049;51.450;-2.516;2024-02-15T07:22:58;12.78;99.99
69776;DHT22;57049;51.450;-2.516;2024-02-15T07:25:23;12.83;99.99
69776;DHT22;57049;51.450;-2.516;2024-02-15T07:27:49;12.78;99.99
69776;DHT22;57049;51.450;-2.516;2024-02-15T07:30:14;12.76;99.99
69776;DHT22;57049;51.450;-2.516;2024-02-15T07:32:40;12.75;99.99
69776;DHT22;57049;51.450;-2.516;2024-02-15T07:35:06;12.72;99.99
69776;DHT22;57049;51.450;-2.516;2024-02-15T07:37:39;12.73;99.99
69776;DHT22;57049;51.450;-2.516;2024-02-15T07:40:05;12.69;99.99
69776;DHT22;57049;51.450;-2.516;2024-02-15T07:42:33;12.73;99.99
69776;DHT22;57049;51.450;-2.516;2024-02-15T07:45:00;12.73;99.99
69776;DHT22;57049;51.450;-2.516;2024-02-15T07:47:26;12.79;99.99
69776;DHT22;57049;51.450;-2.516;2024-02-15T07:49:52;12.83;99.99
69776;DHT22;57049;51.450;-2.516;2024-02-15T07:52:17;12.90;99.99
69776;DHT22;57049;51.450;-2.516;2024-02-15T07:54:44;12.95;99.99
69776;DHT22;57049;51.450;-2.516;2024-02-15T07:57:09;12.99;99.99
69776;DHT22;57049;51.450;-2.516;2024-02-15T07:59:36;13.00;99.99
69776;DHT22;57049;51.450;-2.516;2024-02-15T08:02:01;12.97;99.99
69776;DHT22;57049;51.450;-2.516;2024-02-15T08:04:27;12.96;99.99
69776;DHT22;57049;51.450;-2.516;2024-02-15T08:06:54;12.95;99.99
69776;DHT22;57049;51.450;-2.516;2024-02-15T08:09:21;13.00;99.99
69776;DHT22;57049;51.450;-2.516;2024-02-15T08:11:49;13.02;99.99
69776;DHT22;57049;51.450;-2.516;2024-02-15T08:14:19;13.00;99.99
69776;DHT22;57049;51.450;-2.516;2024-02-15T08:16:45;13.03;99.99
69776;DHT22;57049;51.450;-2.516;2024-02-15T08:19:11;12.97;99.99
69776;DHT22;57049;51.450;-2.516;2024-02-15T08:21:37;12.96;99.99
69776;DHT22;57049;51.450;-2.516;2024-02-15T08:24:04;12.93;99.99
69776;DHT22;57049;51.450;-2.516;2024-02-15T08:26:35;12.93;99.99
69776;DHT22;57049;51.450;-2.516;2024-02-15T08:29:03;12.89;99.99
69776;DHT22;57049;51.450;-2.516;2024-02-15T08:31:29;12.88;99.99
69776;DHT22;57049;51.450;-2.516;2024-02-15T08:33:56;12.89;99.99
69776;DHT22;57049;51.450;-2.516;2024-02-15T08:36:22;12.86;99.99
69776;DHT22;57049;51.450;-2.516;2024-02-15T08:38:49;12.89;99.99
69776;DHT22;57049;51.450;-2.516;2024-02-15T08:41:15;12.90;99.99
69776;DHT22;57049;51.450;-2.516;2024-02-15T08:43:44;12.89;99.99
69776;DHT22;57049;51.450;-2.516;2024-02-15T08:46:09;12.90;99.99
69776;DHT22;57049;51.450;-2.516;2024-02-15T08:48:35;13.00;99.99
69776;DHT22;57049;51.450;-2.516;2024-02-15T08:51:01;13.00;99.73
69776;DHT22;57049;51.450;-2.516;2024-02-15T08:53:27;12.96;99.22
69776;DHT22;57049;51.450;-2.516;2024-02-15T08:55:53;13.00;99.42
69776;DHT22;57049;51.450;-2.516;2024-02-15T08:58:19;12.95;99.10
69776;DHT22;57049;51.450;-2.516;2024-02-15T09:00:46;12.93;98.99
69776;DHT22;57049;51.450;-2.516;2024-02-15T09:03:12;12.92;98.84
69776;DHT22;57049;51.450;-2.516;2024-02-15T09:05:40;13.02;98.58
69776;DHT22;57049;51.450;-2.516;2024-02-15T09:08:07;13.03;97.99
69776;DHT22;57049;51.450;-2.516;2024-02-15T09:10:32;13.10;97.94
69776;DHT22;57049;51.450;-2.516;2024-02-15T09:12:58;13.16;97.96
69776;DHT22;57049;51.450;-2.516;2024-02-15T09:15:23;13.17;97.57
69776;DHT22;57049;51.450;-2.516;2024-02-15T09:17:50;13.26;97.48
69776;DHT22;57049;51.450;-2.516;2024-02-15T09:20:16;13.23;96.94
69776;DHT22;57049;51.450;-2.516;2024-02-15T09:22:51;13.36;96.74
69776;DHT22;57049;51.450;-2.516;2024-02-15T09:25:17;13.48;96.51
69776;DHT22;57049;51.450;-2.516;2024-02-15T09:27:43;13.50;96.30
69776;DHT22;57049;51.450;-2.516;2024-02-15T09:30:10;13.54;95.98
69776;DHT22;57049;51.450;-2.516;2024-02-15T09:32:36;13.54;95.85
69776;DHT22;57049;51.450;-2.516;2024-02-15T09:35:02;13.54;95.49
69776;DHT22;57049;51.450;-2.516;2024-02-15T09:37:27;13.46;95.03
69776;DHT22;57049;51.450;-2.516;2024-02-15T09:39:54;13.43;95.48
69776;DHT22;57049;51.450;-2.516;2024-02-15T09:42:20;13.46;95.70
69776;DHT22;57049;51.450;-2.516;2024-02-15T09:44:46;13.34;95.57
69776;DHT22;57049;51.450;-2.516;2024-02-15T09:47:13;13.40;95.46
69776;DHT22;57049;51.450;-2.516;2024-02-15T09:49:40;13.37;95.41
69776;DHT22;57049;51.450;-2.516;2024-02-15T09:52:07;13.37;95.73
69776;DHT22;57049;51.450;-2.516;2024-02-15T09:54:41;13.34;95.49
69776;DHT22;57049;51.450;-2.516;2024-02-15T09:57:11;13.36;95.57
69776;DHT22;57049;51.450;-2.516;2024-02-15T09:59:40;13.34;95.26
69776;DHT22;57049;51.450;-2.516;2024-02-15T10:02:07;13.39;95.41
69776;DHT22;57049;51.450;-2.516;2024-02-15T10:04:37;13.37;95.35
69776;DHT22;57049;51.450;-2.516;2024-02-15T10:07:03;13.39;95.11
69776;DHT22;57049;51.450;-2.516;2024-02-15T10:09:30;13.39;95.35
69776;DHT22;57049;51.450;-2.516;2024-02-15T10:12:03;13.39;94.75
69776;DHT22;57049;51.450;-2.516;2024-02-15T10:14:32;13.43;95.07
69776;DHT22;57049;51.450;-2.516;2024-02-15T10:17:07;13.39;94.45
69776;DHT22;57049;51.450;-2.516;2024-02-15T10:19:39;13.37;94.77
69776;DHT22;57049;51.450;-2.516;2024-02-15T10:22:07;13.47;94.56
69776;DHT22;57049;51.450;-2.516;2024-02-15T10:24:36;13.57;94.20
69776;DHT22;57049;51.450;-2.516;2024-02-15T10:27:05;13.55;94.27
69776;DHT22;57049;51.450;-2.516;2024-02-15T10:29:33;13.50;93.79
69776;DHT22;57049;51.450;-2.516;2024-02-15T10:32:03;13.55;94.02
69776;DHT22;57049;51.450;-2.516;2024-02-15T10:34:30;13.55;94.06
69776;DHT22;57049;51.450;-2.516;2024-02-15T10:37:14;13.54;93.99
69776;DHT22;57049;51.450;-2.516;2024-02-15T10:39:42;13.57;94.14
69776;DHT22;57049;51.450;-2.516;2024-02-15T10:42:08;13.61;93.80
69776;DHT22;57049;51.450;-2.516;2024-02-15T10:44:37;13.67;93.85
69776;DHT22;57049;51.450;-2.516;2024-02-15T10:47:06;13.70;93.46
69776;DHT22;57049;51.450;-2.516;2024-02-15T10:49:35;13.68;93.21
69776;DHT22;57049;51.450;-2.516;2024-02-15T10:52:04;13.68;93.16
69776;DHT22;57049;51.450;-2.516;2024-02-15T10:57:04;13.72;93.17
69776;DHT22;57049;51.450;-2.516;2024-02-15T10:59:33;13.77;93.24
69776;DHT22;57049;51.450;-2.516;2024-02-15T11:04:53;13.89;93.12
69776;DHT22;57049;51.450;-2.516;2024-02-15T11:07:26;13.97;92.59
69776;DHT22;57049;51.450;-2.516;2024-02-15T11:09:57;14.02;92.38
69776;DHT22;57049;51.450;-2.516;2024-02-15T11:12:24;14.11;92.23
69776;DHT22;57049;51.450;-2.516;2024-02-15T11:14:51;14.19;92.30
69776;DHT22;57049;51.450;-2.516;2024-02-15T11:20:06;14.30;91.90
69776;DHT22;57049;51.450;-2.516;2024-02-15T11:22:36;14.40;92.20
69776;DHT22;57049;51.450;-2.516;2024-02-15T11:25:05;14.52;92.17
69776;DHT22;57049;51.450;-2.516;2024-02-15T11:27:36;14.63;91.84
69776;DHT22;57049;51.450;-2.516;2024-02-15T11:30:05;14.64;91.81
69776;DHT22;57049;51.450;-2.516;2024-02-15T11:32:48;14.79;91.58
69776;DHT22;57049;51.450;-2.516;2024-02-15T11:35:25;14.93;91.20
69776;DHT22;57049;51.450;-2.516;2024-02-15T11:37:58;14.93;90.91
69776;DHT22;57049;51.450;-2.516;2024-02-15T11:40:28;15.01;90.49
69776;DHT22;57049;51.450;-2.516;2024-02-15T11:43:00;15.11;90.46
69776;DHT22;57049;51.450;-2.516;2024-02-15T11:45:27;15.18;89.87
69776;DHT22;57049;51.450;-2.516;2024-02-15T11:47:58;15.24;89.50
69776;DHT22;57049;51.450;-2.516;2024-02-15T11:50:28;15.31;89.39
69776;DHT22;57049;51.450;-2.516;2024-02-15T11:53:01;15.36;89.32
69776;DHT22;57049;51.450;-2.516;2024-02-15T11:55:31;15.41;89.15
69776;DHT22;57049;51.450;-2.516;2024-02-15T11:57:59;15.52;89.26
69776;DHT22;57049;51.450;-2.516;2024-02-15T12:00:31;15.58;88.61
69776;DHT22;57049;51.450;-2.516;2024-02-15T12:03:16;15.66;88.80
69776;DHT22;57049;51.450;-2.516;2024-02-15T12:06:00;15.63;88.66
69776;DHT22;57049;51.450;-2.516;2024-02-15T12:08:46;15.61;88.60
69776;DHT22;57049;51.450;-2.516;2024-02-15T12:11:33;15.49;89.42
69776;DHT22;57049;51.450;-2.516;2024-02-15T12:14:17;15.48;89.52
69776;DHT22;57049;51.450;-2.516;2024-02-15T12:17:09;15.45;89.40
69776;DHT22;57049;51.450;-2.516;2024-02-15T12:19:54;15.42;89.58
69776;DHT22;57049;51.450;-2.516;2024-02-15T12:22:30;15.46;89.39
69776;DHT22;57049;51.450;-2.516;2024-02-15T12:24:57;15.44;89.59
69776;DHT22;57049;51.450;-2.516;2024-02-15T12:27:24;15.48;89.92
69776;DHT22;57049;51.450;-2.516;2024-02-15T12:29:56;15.46;89.70
69776;DHT22;57049;51.450;-2.516;2024-02-15T12:32:27;15.45;89.92
69776;DHT22;57049;51.450;-2.516;2024-02-15T12:34:53;15.44;89.50
69776;DHT22;57049;51.450;-2.516;2024-02-15T12:37:20;15.46;89.33
69776;DHT22;57049;51.450;-2.516;2024-02-15T12:39:52;15.54;89.09
69776;DHT22;57049;51.450;-2.516;2024-02-15T12:42:18;15.55;88.52
69776;DHT22;57049;51.450;-2.516;2024-02-15T12:44:46;15.59;88.89
69776;DHT22;57049;51.450;-2.516;2024-02-15T12:47:38;15.48;90.64
69776;DHT22;57049;51.450;-2.516;2024-02-15T12:50:14;15.45;90.00
69776;DHT22;57049;51.450;-2.516;2024-02-15T12:52:40;15.39;89.37
69776;DHT22;57049;51.450;-2.516;2024-02-15T12:55:19;15.41;89.46
69776;DHT22;57049;51.450;-2.516;2024-02-15T12:57:50;15.35;89.82
69776;DHT22;57049;51.450;-2.516;2024-02-15T13:02:47;15.59;90.04
69776;DHT22;57049;51.450;-2.516;2024-02-15T13:05:16;15.83;89.57
69776;DHT22;57049;51.450;-2.516;2024-02-15T13:07:44;16.00;89.39
69776;DHT22;57049;51.450;-2.516;2024-02-15T13:10:10;16.06;88.31
69776;DHT22;57049;51.450;-2.516;2024-02-15T13:12:36;16.10;88.84
69776;DHT22;57049;51.450;-2.516;2024-02-15T13:15:03;16.20;88.03
69776;DHT22;57049;51.450;-2.516;2024-02-15T13:17:30;16.18;88.26
69776;DHT22;57049;51.450;-2.516;2024-02-15T13:19:56;16.23;88.09
69776;DHT22;57049;51.450;-2.516;2024-02-15T13:22:30;16.33;88.43
69776;DHT22;57049;51.450;-2.516;2024-02-15T13:24:56;16.34;87.49
69776;DHT22;57049;51.450;-2.516;2024-02-15T13:27:21;16.41;87.53
69776;DHT22;57049;51.450;-2.516;2024-02-15T13:29:49;16.23;87.97
69776;DHT22;57049;51.450;-2.516;2024-02-15T13:32:15;16.27;88.04
69776;DHT22;57049;51.450;-2.516;2024-02-15T13:34:45;16.38;87.74
69776;DHT22;57049;51.450;-2.516;2024-02-15T13:37:11;16.37;87.89
69776;DHT22;57049;51.450;-2.516;2024-02-15T13:39:48;16.44;88.07
69776;DHT22;57049;51.450;-2.516;2024-02-15T13:42:13;16.46;88.06
69776;DHT22;57049;51.450;-2.516;2024-02-15T13:44:39;16.41;87.99
69776;DHT22;57049;51.450;-2.516;2024-02-15T13:47:04;16.36;87.63
69776;DHT22;57049;51.450;-2.516;2024-02-15T13:49:31;16.27;87.63
69776;DHT22;57049;51.450;-2.516;2024-02-15T13:52:01;16.10;87.81
69776;DHT22;57049;51.450;-2.516;2024-02-15T13:54:33;16.03;88.59
69776;DHT22;57049;51.450;-2.516;2024-02-15T13:57:01;15.97;89.03
69776;DHT22;57049;51.450;-2.516;2024-02-15T13:59:27;15.99;89.12
69776;DHT22;57049;51.450;-2.516;2024-02-15T14:01:54;15.97;89.50
69776;DHT22;57049;51.450;-2.516;2024-02-15T14:04:19;16.05;89.41
69776;DHT22;57049;51.450;-2.516;2024-02-15T14:06:47;16.10;88.88
69776;DHT22;57049;51.450;-2.516;2024-02-15T14:09:14;16.12;89.20
69776;DHT22;57049;51.450;-2.516;2024-02-15T14:11:42;16.07;88.87
69776;DHT22;57049;51.450;-2.516;2024-02-15T14:14:19;16.09;88.40
69776;DHT22;57049;51.450;-2.516;2024-02-15T14:16:46;16.12;88.70
69776;DHT22;57049;51.450;-2.516;2024-02-15T14:19:21;16.03;88.82
69776;DHT22;57049;51.450;-2.516;2024-02-15T14:21:48;16.06;88.95
69776;DHT22;57049;51.450;-2.516;2024-02-15T14:24:14;15.99;88.91
69776;DHT22;57049;51.450;-2.516;2024-02-15T14:26:39;15.96;89.17
69776;DHT22;57049;51.450;-2.516;2024-02-15T14:29:08;15.96;89.26
69776;DHT22;57049;51.450;-2.516;2024-02-15T14:31:40;15.93;89.66
69776;DHT22;57049;51.450;-2.516;2024-02-15T14:34:27;15.99;89.37
69776;DHT22;57049;51.450;-2.516;2024-02-15T14:36:53;16.05;89.06
69776;DHT22;57049;51.450;-2.516;2024-02-15T14:39:19;16.05;89.26
69776;DHT22;57049;51.450;-2.516;2024-02-15T14:41:45;15.89;89.16
69776;DHT22;57049;51.450;-2.516;2024-02-15T14:44:14;15.73;89.71
69776;DHT22;57049;51.450;-2.516;2024-02-15T14:46:39;15.56;89.84
69776;DHT22;57049;51.450;-2.516;2024-02-15T14:49:05;15.42;90.76
69776;DHT22;57049;51.450;-2.516;2024-02-15T14:51:32;15.27;91.48
69776;DHT22;57049;51.450;-2.516;2024-02-15T14:54:02;15.23;91.60
69776;DHT22;57049;51.450;-2.516;2024-02-15T14:56:27;15.11;92.64
69776;DHT22;57049;51.450;-2.516;2024-02-15T14:59:01;15.07;92.72
69776;DHT22;57049;51.450;-2.516;2024-02-15T15:01:26;14.95;93.62
69776;DHT22;57049;51.450;-2.516;2024-02-15T15:03:53;14.88;93.78
69776;DHT22;57049;51.450;-2.516;2024-02-15T15:06:20;14.83;94.47
69776;DHT22;57049;51.450;-2.516;2024-02-15T15:09:05;14.83;94.51
69776;DHT22;57049;51.450;-2.516;2024-02-15T15:11:49;14.88;94.60
69776;DHT22;57049;51.450;-2.516;2024-02-15T15:14:36;14.80;95.11
69776;DHT22;57049;51.450;-2.516;2024-02-15T15:17:03;14.72;95.81
69776;DHT22;57049;51.450;-2.516;2024-02-15T15:19:29;14.77;95.64
69776;DHT22;57049;51.450;-2.516;2024-02-15T15:21:55;14.79;95.51
69776;DHT22;57049;51.450;-2.516;2024-02-15T15:24:20;14.79;95.68
69776;DHT22;57049;51.450;-2.516;2024-02-15T15:26:46;14.74;95.66
69776;DHT22;57049;51.450;-2.516;2024-02-15T15:29:15;14.69;95.90
69776;DHT22;57049;51.450;-2.516;2024-02-15T15:31:44;14.63;96.00
69776;DHT22;57049;51.450;-2.516;2024-02-15T15:34:10;14.56;96.26